Time;durP1;ratioP1;P1;durP2;ratioP2;P2;SDS_P1;SDS_P2;PMS_P1;PMS_P2;Temp;Humidity;BMP_temperature;BMP_pressure;BME280_temperature;BME280_humidity;BME280_pressure;Samples;Min_cycle;Max_cycle;Signal;HPM_P1;HPM_P2
2022/01/10 00:01:53;;;;;;;40.58;7.38;;;26.90;72.20;;;;;;5058570;28;20096;-46
2022/01/10 00:04:20;;;;;;;29.00;6.80;;;26.90;72.00;;;;;;5049191;28;20036;-52
2022/01/10 00:06:46;;;;;;;33.42;7.00;;;26.90;72.10;;;;;;5070275;28;20051;-52
2022/01/10 00:09:13;;;;;;;29.75;7.55;;;26.90;72.10;;;;;;5065774;28;20025;-54
2022/01/10 00:11:40;;;;;;;43.25;7.45;;;26.90;72.20;;;;;;5063943;28;20043;-48
2022/01/10 00:14:07;;;;;;;46.08;7.28;;;26.90;72.20;;;;;;5063439;28;20004;-48
2022/01/10 00:16:33;;;;;;;40.05;6.93;;;26.90;72.20;;;;;;5042981;28;20044;-55
2022/01/10 00:19:00;;;;;;;27.02;5.80;;;26.90;72.30;;;;;;5049997;28;20014;-51
2022/01/10 00:21:26;;;;;;;45.55;7.97;;;26.90;72.10;;;;;;5049745;28;20024;-51
2022/01/10 00:23:53;;;;;;;28.80;6.63;;;26.90;72.20;;;;;;5065568;28;20070;-56
2022/01/10 00:26:21;;;;;;;55.92;8.13;;;26.90;72.10;;;;;;5065300;28;20033;-49
2022/01/10 00:28:49;;;;;;;41.00;6.80;;;26.90;72.10;;;;;;5065510;28;20017;-48
2022/01/10 00:31:21;;;;;;;27.80;5.82;;;26.90;72.00;;;;;;5064613;28;20029;-46
2022/01/10 00:33:47;;;;;;;25.45;5.85;;;26.90;71.90;;;;;;5047590;28;20122;-56
2022/01/10 00:36:14;;;;;;;32.65;6.15;;;26.90;72.00;;;;;;5065088;28;20029;-49
2022/01/10 00:38:45;;;;;;;29.88;6.68;;;26.90;72.00;;;;;;5055913;28;20211;-49
2022/01/10 00:41:13;;;;;;;29.92;6.70;;;26.90;72.00;;;;;;5061546;28;20314;-51
2022/01/10 00:43:46;;;;;;;23.17;6.50;;;26.90;72.00;;;;;;5042779;28;20029;-51
2022/01/10 00:46:14;;;;;;;25.92;9.02;;;26.90;71.90;;;;;;5055931;28;20207;-46
2022/01/10 00:48:42;;;;;;;31.40;12.02;;;26.80;71.90;;;;;;5064153;28;20017;-48
2022/01/10 00:51:09;;;;;;;33.90;11.77;;;26.80;72.00;;;;;;5064496;28;20088;-52
2022/01/10 00:53:36;;;;;;;29.17;10.75;;;26.80;71.90;;;;;;5045194;28;20085;-51
2022/01/10 00:56:08;;;;;;;28.77;10.18;;;26.80;71.80;;;;;;5053613;28;20021;-54
2022/01/10 00:58:36;;;;;;;26.25;9.73;;;26.80;71.60;;;;;;5049078;28;20080;-52
2022/01/10 01:01:05;;;;;;;28.38;9.43;;;26.80;71.70;;;;;;5064925;28;20021;-60
2022/01/10 01:03:32;;;;;;;24.67;8.20;;;26.80;71.60;;;;;;5064613;28;20009;-52
2022/01/10 01:05:59;;;;;;;22.48;7.80;;;26.80;71.50;;;;;;5064632;28;20335;-55
2022/01/10 01:08:28;;;;;;;17.85;7.13;;;26.80;71.60;;;;;;5064486;28;20036;-47
2022/01/10 01:13:49;;;;;;;22.33;7.35;;;26.80;71.80;;;;;;5064351;28;20021;-54
2022/01/10 01:16:29;;;;;;;19.48;6.78;;;26.80;71.50;;;;;;5053387;28;20021;-47
2022/01/10 01:24:18;;;;;;;18.70;6.97;;;26.80;71.20;;;;;;5064320;28;20032;-49
2022/01/10 01:26:47;;;;;;;22.67;7.05;;;26.80;71.20;;;;;;5064335;28;20033;-56
2022/01/10 01:29:20;;;;;;;13.68;6.88;;;26.80;71.20;;;;;;5064329;28;20385;-60
2022/01/10 01:31:47;;;;;;;21.40;7.10;;;26.80;71.10;;;;;;5055636;28;20026;-49
2022/01/10 01:34:17;;;;;;;74.60;10.10;;;26.80;71.10;;;;;;5060267;28;20053;-53
2022/01/10 01:36:49;;;;;;;25.42;7.95;;;26.80;71.20;;;;;;5030647;28;20092;-52
2022/01/10 01:39:19;;;;;;;21.70;7.30;;;26.80;71.30;;;;;;5058239;28;20063;-55
2022/01/10 01:41:53;;;;;;;18.35;6.57;;;26.80;71.10;;;;;;5061419;28;20094;-53
2022/01/10 01:44:20;;;;;;;18.42;6.63;;;26.70;71.00;;;;;;5043007;28;20314;-51
2022/01/10 01:46:47;;;;;;;17.70;6.30;;;26.80;71.00;;;;;;5063669;28;20059;-51
2022/01/10 01:49:16;;;;;;;18.70;6.93;;;26.70;70.90;;;;;;5063371;28;20029;-52
2022/01/10 01:51:45;;;;;;;18.13;6.65;;;26.70;71.00;;;;;;5040360;28;20036;-51
2022/01/10 01:54:12;;;;;;;16.38;6.80;;;26.80;71.20;;;;;;5064000;28;20012;-53
2022/01/10 01:56:41;;;;;;;17.88;6.65;;;26.70;71.00;;;;;;5059310;28;20035;-61
2022/01/10 01:59:09;;;;;;;22.77;6.90;;;26.80;71.10;;;;;;5043767;28;20014;-46
2022/01/10 02:01:36;;;;;;;22.27;7.57;;;26.80;71.20;;;;;;5064960;28;20048;-54
2022/01/10 02:04:03;;;;;;;19.55;7.43;;;26.80;71.10;;;;;;5046655;28;20032;-48
2022/01/10 02:06:30;;;;;;;19.00;6.60;;;26.80;71.20;;;;;;5051450;28;20028;-49
2022/01/10 02:08:57;;;;;;;20.08;7.05;;;26.80;71.00;;;;;;5061371;28;20021;-50
2022/01/10 02:11:24;;;;;;;18.17;7.38;;;26.80;70.90;;;;;;5060848;28;20032;-52
2022/01/10 02:13:51;;;;;;;19.00;6.38;;;26.80;70.90;;;;;;5056421;28;20024;-55
2022/01/10 02:16:22;;;;;;;17.75;6.88;;;26.80;70.70;;;;;;5039999;28;20381;-52
2022/01/10 02:18:49;;;;;;;15.50;6.47;;;26.80;70.80;;;;;;5054146;28;20252;-55
2022/01/10 02:21:16;;;;;;;18.88;6.75;;;26.80;70.70;;;;;;5057682;28;20037;-48
2022/01/10 02:23:43;;;;;;;20.65;6.50;;;26.80;70.60;;;;;;5059451;28;20013;-53
2022/01/10 02:26:10;;;;;;;17.50;6.85;;;26.80;70.70;;;;;;5053536;28;20037;-52
2022/01/10 02:28:37;;;;;;;16.70;6.63;;;26.80;70.60;;;;;;5068620;28;20329;-52
2022/01/10 02:31:07;;;;;;;12.68;6.82;;;26.80;70.70;;;;;;5054668;28;20045;-54
2022/01/10 02:33:33;;;;;;;15.23;5.82;;;26.80;70.70;;;;;;5059472;28;20040;-54
2022/01/10 02:38:28;;;;;;;18.55;6.55;;;26.80;70.70;;;;;;5059399;28;20021;-50
2022/01/10 02:40:56;;;;;;;32.30;7.47;;;26.80;70.70;;;;;;5056241;28;20078;-57
2022/01/10 02:43:23;;;;;;;17.77;6.20;;;26.80;70.70;;;;;;5055670;28;20018;-50
2022/01/10 02:45:50;;;;;;;20.13;6.60;;;26.80;70.70;;;;;;5058263;28;20024;-54
2022/01/10 02:48:16;;;;;;;31.88;6.75;;;26.80;70.70;;;;;;5056289;28;20233;-54
2022/01/10 02:50:43;;;;;;;15.40;6.10;;;26.80;70.60;;;;;;5060478;28;20019;-53
2022/01/10 02:53:10;;;;;;;18.98;6.82;;;26.80;70.60;;;;;;5061212;28;20175;-51
2022/01/10 02:55:37;;;;;;;15.68;5.90;;;26.80;70.80;;;;;;5060093;28;20021;-58
2022/01/10 02:58:04;;;;;;;11.88;6.00;;;26.80;70.80;;;;;;5058202;28;20124;-53
2022/01/10 03:00:32;;;;;;;13.13;6.57;;;26.80;70.60;;;;;;5065677;28;20029;-53
2022/01/10 03:02:59;;;;;;;10.77;5.93;;;26.80;70.50;;;;;;5066839;28;20035;-52
2022/01/10 03:05:26;;;;;;;11.82;5.78;;;26.80;70.60;;;;;;5057916;28;20044;-54
2022/01/10 03:08:02;;;;;;;11.77;6.03;;;26.80;70.50;;;;;;5057898;28;20024;-49
2022/01/10 03:10:29;;;;;;;14.80;6.10;;;26.80;70.40;;;;;;5045100;28;20225;-53
2022/01/10 03:12:57;;;;;;;12.23;5.95;;;26.70;70.40;;;;;;5057770;28;20029;-49
2022/01/10 03:15:23;;;;;;;14.40;5.85;;;26.70;70.30;;;;;;5057505;28;20013;-53
2022/01/10 03:17:50;;;;;;;15.70;6.07;;;26.70;70.30;;;;;;5057344;28;20017;-53
2022/01/10 03:20:17;;;;;;;16.05;6.20;;;26.70;70.40;;;;;;5057962;28;20029;-49
2022/01/10 03:22:44;;;;;;;10.75;5.57;;;26.70;70.30;;;;;;5058928;28;20017;-56
2022/01/10 03:25:11;;;;;;;12.57;6.05;;;26.70;70.30;;;;;;5071778;28;20028;-52
2022/01/10 03:27:37;;;;;;;12.20;6.15;;;26.70;70.30;;;;;;5056640;28;20021;-55
2022/01/10 03:30:05;;;;;;;9.88;5.80;;;26.70;70.30;;;;;;5060756;28;20213;-49
2022/01/10 03:32:32;;;;;;;13.18;6.45;;;26.70;70.20;;;;;;5056401;28;20333;-58
2022/01/10 03:34:58;;;;;;;14.98;6.15;;;26.70;70.20;;;;;;5057760;28;20037;-54
2022/01/10 03:37:26;;;;;;;11.13;6.10;;;26.70;70.20;;;;;;5061283;28;20064;-54
2022/01/10 03:39:53;;;;;;;11.40;6.10;;;26.70;70.10;;;;;;5058399;28;20085;-49
2022/01/10 03:42:19;;;;;;;15.55;6.00;;;26.70;70.10;;;;;;5065099;28;20032;-50
2022/01/10 03:44:46;;;;;;;10.93;5.55;;;26.70;70.20;;;;;;5066450;28;20240;-52
2022/01/10 03:47:13;;;;;;;11.48;6.07;;;26.70;70.20;;;;;;5066433;28;20217;-55
2022/01/10 03:49:39;;;;;;;11.43;6.13;;;26.70;70.20;;;;;;5064870;28;20020;-53
2022/01/10 03:52:06;;;;;;;10.75;5.53;;;26.70;70.10;;;;;;5065898;28;20036;-55
2022/01/10 03:54:33;;;;;;;11.50;6.22;;;26.70;70.30;;;;;;5065048;28;20059;-55
2022/01/10 03:56:59;;;;;;;12.35;6.32;;;26.70;70.20;;;;;;5065142;28;20045;-59
2022/01/10 03:59:26;;;;;;;10.45;5.93;;;26.70;70.20;;;;;;5066072;28;20062;-54
2022/01/10 04:01:53;;;;;;;17.17;5.90;;;26.70;70.20;;;;;;5066196;28;20047;-56
2022/01/10 04:04:20;;;;;;;14.48;6.32;;;26.70;70.20;;;;;;5065319;28;20326;-49
2022/01/10 04:06:46;;;;;;;10.73;5.97;;;26.70;70.20;;;;;;5066195;28;20032;-59
2022/01/10 04:09:13;;;;;;;8.25;5.57;;;26.60;70.20;;;;;;5056859;28;20341;-52
2022/01/10 04:11:40;;;;;;;10.05;5.90;;;26.60;70.30;;;;;;5063115;28;20029;-52
2022/01/10 04:14:06;;;;;;;9.45;5.97;;;26.60;70.20;;;;;;5065799;28;20019;-52
2022/01/10 04:16:33;;;;;;;9.63;5.65;;;26.60;70.30;;;;;;5065736;28;20112;-55
2022/01/10 04:18:59;;;;;;;6.60;5.70;;;26.60;70.30;;;;;;5065662;28;20028;-53
2022/01/10 04:21:26;;;;;;;11.32;5.97;;;26.60;70.30;;;;;;5065777;28;20017;-52
2022/01/10 04:23:52;;;;;;;11.80;6.55;;;26.60;70.30;;;;;;5065639;28;20092;-49
2022/01/10 04:26:20;;;;;;;9.20;5.82;;;26.60;70.30;;;;;;5065567;28;20062;-48
2022/01/10 04:28:46;;;;;;;8.20;5.72;;;26.60;70.40;;;;;;5065605;28;20080;-58
2022/01/10 04:31:13;;;;;;;8.05;5.47;;;26.60;70.30;;;;;;5065493;28;20074;-52
2022/01/10 04:33:40;;;;;;;11.45;5.75;;;26.60;70.40;;;;;;5065165;28;20056;-54
2022/01/10 04:36:07;;;;;;;9.50;6.03;;;26.60;70.40;;;;;;5065366;28;20021;-64
2022/01/10 04:38:37;;;;;;;9.88;5.80;;;26.60;70.40;;;;;;5065370;28;20024;-53
2022/01/10 04:41:04;;;;;;;9.38;5.55;;;26.60;70.40;;;;;;5065204;28;20078;-52
2022/01/10 04:43:31;;;;;;;7.55;6.00;;;26.60;70.40;;;;;;5065313;28;20048;-57
2022/01/10 04:45:58;;;;;;;9.15;5.97;;;26.60;70.50;;;;;;5059178;28;20303;-52
2022/01/10 04:48:24;;;;;;;11.30;5.53;;;26.60;70.50;;;;;;5045150;28;20055;-51
2022/01/10 04:53:36;;;;;;;9.57;5.97;;;26.60;70.50;;;;;;5045089;28;20028;-55
2022/01/10 04:56:02;;;;;;;8.60;5.05;;;26.60;70.60;;;;;;5045052;28;20205;-47
2022/01/10 04:58:29;;;;;;;11.98;5.65;;;26.60;70.70;;;;;;5045114;28;20036;-53
2022/01/10 05:00:55;;;;;;;12.90;5.82;;;26.60;70.60;;;;;;5044865;28;20318;-54
2022/01/10 05:03:22;;;;;;;10.95;5.05;;;26.60;70.50;;;;;;5044991;28;20025;-54
2022/01/10 05:05:53;;;;;;;7.38;5.35;;;26.60;70.50;;;;;;5044137;28;20017;-48
2022/01/10 05:08:21;;;;;;;8.60;5.07;;;26.60;70.60;;;;;;5044716;28;20029;-52
2022/01/10 05:10:51;;;;;;;6.95;5.20;;;26.60;70.70;;;;;;5053364;28;20025;-52
2022/01/10 05:13:20;;;;;;;9.65;5.28;;;26.60;70.60;;;;;;5064690;28;20036;-50
2022/01/10 05:15:47;;;;;;;8.38;5.30;;;26.60;70.40;;;;;;5064614;28;20021;-49
2022/01/10 05:18:14;;;;;;;18.58;5.70;;;26.60;70.50;;;;;;5065068;28;20294;-49
2022/01/10 05:20:41;;;;;;;9.80;5.38;;;26.60;70.40;;;;;;5064596;28;20024;-52
2022/01/10 05:23:08;;;;;;;9.20;5.15;;;26.60;70.50;;;;;;5064853;28;20088;-51
2022/01/10 05:25:39;;;;;;;7.57;5.20;;;26.60;70.40;;;;;;5064678;28;20021;-53
2022/01/10 05:28:07;;;;;;;7.50;4.80;;;26.60;70.40;;;;;;5065033;28;20032;-54
2022/01/10 05:30:34;;;;;;;7.18;4.95;;;26.60;70.50;;;;;;5064291;28;20329;-59
2022/01/10 05:33:01;;;;;;;10.48;4.97;;;26.60;70.30;;;;;;5064524;28;20309;-60
2022/01/10 05:35:27;;;;;;;9.40;5.30;;;26.60;70.30;;;;;;5064340;28;20013;-53
2022/01/10 05:37:54;;;;;;;9.40;4.88;;;26.60;70.30;;;;;;5064568;28;20025;-49
2022/01/10 05:40:20;;;;;;;7.93;5.10;;;26.60;70.30;;;;;;5064269;28;20013;-53
2022/01/10 05:42:47;;;;;;;6.53;5.07;;;26.60;70.30;;;;;;5064594;28;20051;-53
2022/01/10 05:45:14;;;;;;;11.95;4.93;;;26.60;70.50;;;;;;5064071;28;20020;-61
2022/01/10 05:47:43;;;;;;;10.43;5.32;;;26.60;70.50;;;;;;5064535;28;20029;-53
2022/01/10 05:50:12;;;;;;;12.48;4.95;;;26.60;70.40;;;;;;5064156;28;20043;-48
2022/01/10 05:52:39;;;;;;;10.27;4.90;;;26.60;70.40;;;;;;5064271;28;20039;-49
2022/01/10 05:55:06;;;;;;;8.93;4.75;;;26.60;70.60;;;;;;5064063;28;20021;-48
2022/01/10 05:57:33;;;;;;;7.60;4.82;;;26.60;70.60;;;;;;5064262;28;20028;-49
2022/01/10 05:59:59;;;;;;;7.70;4.88;;;26.60;70.70;;;;;;5063824;28;20044;-58
2022/01/10 06:02:26;;;;;;;8.98;5.05;;;26.60;70.70;;;;;;5064313;28;20025;-50
2022/01/10 06:04:54;;;;;;;6.47;4.90;;;26.60;70.70;;;;;;5064083;28;20326;-48
2022/01/10 06:07:21;;;;;;;8.73;4.75;;;26.60;71.30;;;;;;5064017;28;20208;-47
2022/01/10 06:09:47;;;;;;;7.43;5.13;;;26.60;70.90;;;;;;5063972;28;20025;-54
2022/01/10 06:12:14;;;;;;;6.78;4.82;;;26.60;70.90;;;;;;5063939;28;20035;-53
2022/01/10 06:14:40;;;;;;;8.02;4.90;;;26.60;71.00;;;;;;5063681;28;20049;-51
2022/01/10 06:17:07;;;;;;;7.40;4.50;;;26.60;71.30;;;;;;5063655;28;20187;-52
2022/01/10 06:19:33;;;;;;;8.35;4.55;;;26.50;71.30;;;;;;5063853;28;20017;-55
2022/01/10 06:22:00;;;;;;;8.93;5.00;;;26.50;71.20;;;;;;5063523;28;20059;-51
2022/01/10 06:24:28;;;;;;;8.63;4.32;;;26.50;71.30;;;;;;5062227;28;20028;-48
2022/01/10 06:26:55;;;;;;;7.55;4.22;;;26.50;71.50;;;;;;5063799;28;20056;-53
2022/01/10 06:29:21;;;;;;;7.68;5.07;;;26.50;71.30;;;;;;5063547;28;20025;-50
2022/01/10 06:31:48;;;;;;;8.75;5.00;;;26.50;71.40;;;;;;5063731;28;20029;-57
2022/01/10 06:34:14;;;;;;;9.57;4.93;;;26.50;71.50;;;;;;5063420;28;20048;-54
2022/01/10 06:36:41;;;;;;;6.53;4.80;;;26.50;71.60;;;;;;5063534;28;20300;-60
2022/01/10 06:39:08;;;;;;;8.45;4.85;;;26.50;71.80;;;;;;5063497;28;20036;-48
2022/01/10 06:41:34;;;;;;;7.68;5.22;;;26.50;71.90;;;;;;5063845;28;20309;-57
2022/01/10 06:44:01;;;;;;;14.57;6.47;;;26.50;71.90;;;;;;5063348;28;20051;-56
2022/01/10 06:46:28;;;;;;;18.92;9.40;;;26.50;71.90;;;;;;5063621;28;20025;-54
2022/01/10 06:48:54;;;;;;;16.10;8.52;;;26.50;72.20;;;;;;5063209;28;20278;-48
2022/01/10 06:51:21;;;;;;;13.93;7.38;;;26.50;72.30;;;;;;5063484;28;20201;-53
2022/01/10 06:53:47;;;;;;;13.80;6.93;;;26.50;72.30;;;;;;5063433;28;20425;-55
2022/01/10 06:56:14;;;;;;;10.90;5.90;;;26.50;72.20;;;;;;5063347;28;20297;-50
2022/01/10 06:58:40;;;;;;;12.10;6.05;;;26.50;72.40;;;;;;5063388;28;20020;-57
2022/01/10 07:01:07;;;;;;;10.13;6.30;;;26.50;72.20;;;;;;5062595;28;20020;-56
2022/01/10 07:03:34;;;;;;;8.70;5.10;;;26.50;72.20;;;;;;5063338;28;20017;-59
2022/01/10 07:06:00;;;;;;;8.90;5.63;;;26.50;72.80;;;;;;5063309;28;20328;-50
2022/01/10 07:08:27;;;;;;;9.20;6.03;;;26.40;72.20;;;;;;5063128;28;20016;-50
2022/01/10 07:10:54;;;;;;;9.68;5.60;;;26.50;72.30;;;;;;5063236;28;20024;-53
2022/01/10 07:13:21;;;;;;;11.63;5.40;;;26.50;72.30;;;;;;5063136;28;20080;-48
2022/01/10 07:15:48;;;;;;;9.98;5.10;;;26.50;72.40;;;;;;5063046;28;20021;-48
2022/01/10 07:18:14;;;;;;;9.00;4.95;;;26.50;72.30;;;;;;5063633;28;20025;-49
2022/01/10 07:20:41;;;;;;;10.45;5.47;;;26.50;72.30;;;;;;5062573;28;20035;-52
2022/01/10 07:23:07;;;;;;;8.90;5.13;;;26.50;72.30;;;;;;5063503;28;20317;-51
2022/01/10 07:25:35;;;;;;;9.65;5.28;;;26.40;72.30;;;;;;5063030;28;20036;-52
2022/01/10 07:28:01;;;;;;;8.63;5.25;;;26.50;72.40;;;;;;5063510;28;20033;-50
2022/01/10 07:30:28;;;;;;;9.13;5.38;;;26.40;72.30;;;;;;5065418;28;20062;-50
2022/01/10 07:32:54;;;;;;;9.90;4.97;;;26.40;72.30;;;;;;5066793;28;20032;-50
2022/01/10 07:35:21;;;;;;;8.38;4.57;;;26.40;72.30;;;;;;5066631;28;20318;-53
2022/01/10 07:37:48;;;;;;;7.45;4.68;;;26.40;72.30;;;;;;5066861;28;20289;-51
2022/01/10 07:40:14;;;;;;;9.43;5.30;;;26.40;72.30;;;;;;5066549;28;20044;-47
2022/01/10 07:42:41;;;;;;;8.23;4.55;;;26.40;72.30;;;;;;5066820;28;20143;-56
2022/01/10 07:45:08;;;;;;;8.93;4.68;;;26.40;72.30;;;;;;5066372;28;20048;-56
2022/01/10 07:47:36;;;;;;;11.45;5.05;;;26.40;72.20;;;;;;5066782;28;20021;-54
2022/01/10 07:50:04;;;;;;;7.82;4.50;;;26.40;72.20;;;;;;5066408;28;20029;-49
2022/01/10 07:52:31;;;;;;;7.68;4.45;;;26.40;72.10;;;;;;5066393;28;20240;-47
2022/01/10 07:54:58;;;;;;;8.48;4.65;;;26.40;72.10;;;;;;5066276;28;20017;-49
2022/01/10 07:57:24;;;;;;;7.32;4.85;;;26.40;72.20;;;;;;5066570;28;20063;-50
2022/01/10 07:59:51;;;;;;;8.15;4.60;;;26.40;72.20;;;;;;5066076;28;20024;-55
2022/01/10 08:02:20;;;;;;;9.45;4.60;;;26.40;72.10;;;;;;5066559;28;20021;-57
2022/01/10 08:04:48;;;;;;;8.40;4.90;;;26.40;72.10;;;;;;5066038;28;20025;-51
2022/01/10 08:07:14;;;;;;;6.65;4.38;;;26.40;72.10;;;;;;5066139;28;20021;-52
2022/01/10 08:09:41;;;;;;;7.38;4.28;;;26.40;72.10;;;;;;5065972;28;20025;-53
2022/01/10 08:12:08;;;;;;;9.30;4.50;;;26.40;71.90;;;;;;5066071;28;20025;-51
2022/01/10 08:14:35;;;;;;;6.47;4.40;;;26.40;71.90;;;;;;5065739;28;20017;-51
2022/01/10 08:17:02;;;;;;;6.72;4.03;;;26.40;71.90;;;;;;5065986;28;20017;-52
2022/01/10 08:19:31;;;;;;;8.90;4.43;;;26.40;72.00;;;;;;5065841;28;20031;-51
2022/01/10 08:21:58;;;;;;;10.05;4.03;;;26.40;71.90;;;;;;5065755;28;20116;-49
2022/01/10 08:24:25;;;;;;;8.20;4.40;;;26.40;72.00;;;;;;5065690;28;20068;-52
2022/01/10 08:26:53;;;;;;;10.88;4.30;;;26.40;72.00;;;;;;5065742;28;20289;-49
2022/01/10 08:29:20;;;;;;;9.30;4.30;;;26.40;71.90;;;;;;5065157;28;20056;-54
2022/01/10 08:31:47;;;;;;;7.68;4.00;;;26.40;72.00;;;;;;5065816;28;20040;-59
2022/01/10 08:34:14;;;;;;;7.40;3.90;;;26.40;72.00;;;;;;5065530;28;20049;-52
2022/01/10 08:36:41;;;;;;;6.47;4.00;;;26.40;72.00;;;;;;5065498;28;20031;-49
2022/01/10 08:39:09;;;;;;;6.53;4.15;;;26.40;71.90;;;;;;5065447;28;20013;-49
2022/01/10 08:41:36;;;;;;;5.78;4.00;;;26.40;71.90;;;;;;5065518;28;20332;-50
2022/01/10 08:44:06;;;;;;;6.30;4.05;;;26.40;71.90;;;;;;5065199;28;20328;-52
2022/01/10 08:46:33;;;;;;;6.13;4.38;;;26.40;72.00;;;;;;5065284;28;20029;-52
2022/01/10 08:49:00;;;;;;;7.47;3.92;;;26.40;71.90;;;;;;5065137;28;20051;-54
2022/01/10 08:51:29;;;;;;;7.07;3.80;;;26.40;72.00;;;;;;5064999;28;20028;-53
2022/01/10 08:53:55;;;;;;;7.72;4.30;;;26.40;72.10;;;;;;5064441;28;20028;-50
2022/01/10 08:56:22;;;;;;;6.45;4.05;;;26.30;72.10;;;;;;5065168;28;20024;-52
2022/01/10 08:58:49;;;;;;;7.95;3.72;;;26.30;72.10;;;;;;5064980;28;20033;-48
2022/01/10 09:01:15;;;;;;;6.20;4.10;;;26.30;72.80;;;;;;5065236;28;20025;-54
2022/01/10 09:03:42;;;;;;;7.22;3.88;;;26.30;72.00;;;;;;5064934;28;20104;-53
2022/01/10 09:06:09;;;;;;;7.32;3.88;;;26.30;72.20;;;;;;5064768;28;20025;-51
2022/01/10 09:08:38;;;;;;;7.55;4.03;;;26.30;72.20;;;;;;5064874;28;20024;-54
2022/01/10 09:11:05;;;;;;;6.57;3.65;;;26.30;72.20;;;;;;5064887;28;20017;-49
2022/01/10 09:13:32;;;;;;;6.47;3.75;;;26.30;72.20;;;;;;5064528;28;20033;-54
2022/01/10 09:16:01;;;;;;;5.53;3.72;;;26.30;72.30;;;;;;5064753;28;20013;-52
2022/01/10 09:18:28;;;;;;;6.30;3.90;;;26.30;72.20;;;;;;5064565;28;20024;-52
2022/01/10 09:20:55;;;;;;;6.15;3.95;;;26.30;72.30;;;;;;5064422;28;20059;-55
2022/01/10 09:23:23;;;;;;;9.52;3.88;;;26.30;72.40;;;;;;5064537;28;20032;-52
2022/01/10 09:25:50;;;;;;;11.38;4.30;;;26.30;72.30;;;;;;5064491;28;20032;-53
2022/01/10 09:28:17;;;;;;;10.65;4.60;;;26.30;72.20;;;;;;5064314;28;20025;-56
2022/01/10 09:30:44;;;;;;;6.55;4.47;;;26.30;72.40;;;;;;5064467;28;20213;-52
2022/01/10 09:33:11;;;;;;;7.57;4.35;;;26.30;72.30;;;;;;5064514;28;20049;-56
2022/01/10 09:35:38;;;;;;;8.50;4.72;;;26.30;72.30;;;;;;5064214;28;20025;-52
2022/01/10 09:38:04;;;;;;;7.95;4.75;;;26.30;72.40;;;;;;5064240;28;20031;-58
2022/01/10 09:40:31;;;;;;;9.95;4.82;;;26.30;72.60;;;;;;5064251;28;20033;-54
2022/01/10 09:42:58;;;;;;;8.60;5.40;;;26.30;72.70;;;;;;5064526;28;20067;-56
2022/01/10 09:45:24;;;;;;;10.00;5.75;;;26.30;72.80;;;;;;5064478;28;20286;-49
2022/01/10 09:47:51;;;;;;;9.73;5.45;;;26.30;72.80;;;;;;5064579;28;20360;-55
2022/01/10 09:50:17;;;;;;;11.27;6.18;;;26.30;73.10;;;;;;5063980;28;20017;-48
2022/01/10 09:52:48;;;;;;;10.50;5.75;;;26.30;73.10;;;;;;5063919;28;20305;-56
2022/01/10 09:55:15;;;;;;;10.15;5.95;;;26.20;73.60;;;;;;5063987;28;20059;-50
2022/01/10 09:57:41;;;;;;;9.07;5.88;;;26.30;73.20;;;;;;5064264;28;20187;-51
2022/01/10 10:00:09;;;;;;;12.98;5.80;;;26.30;73.20;;;;;;5063951;28;20012;-52
2022/01/10 10:02:37;;;;;;;11.95;6.38;;;26.20;73.10;;;;;;5064471;28;20033;-54
2022/01/10 10:05:09;;;;;;;11.20;6.22;;;26.30;73.10;;;;;;5063790;28;20105;-53
2022/01/10 10:07:40;;;;;;;13.40;5.78;;;26.30;72.90;;;;;;5064372;28;20237;-54
2022/01/10 10:10:11;;;;;;;12.40;5.28;;;26.30;72.80;;;;;;5063787;28;20025;-53
2022/01/10 10:12:43;;;;;;;10.32;5.50;;;26.20;72.20;;;;;;5063990;28;20032;-52
2022/01/10 10:15:12;;;;;;;10.57;5.00;;;26.20;72.40;;;;;;5063827;28;20016;-51
2022/01/10 10:17:42;;;;;;;10.80;5.60;;;26.20;72.20;;;;;;5063923;28;20318;-51
2022/01/10 10:20:18;;;;;;;13.15;5.50;;;26.20;72.00;;;;;;5063776;28;20017;-55
2022/01/10 10:22:46;;;;;;;9.85;5.00;;;26.20;71.80;;;;;;5063709;28;20221;-53
2022/01/10 10:25:14;;;;;;;12.77;5.32;;;26.20;71.20;;;;;;5063541;28;20020;-52
2022/01/10 10:27:44;;;;;;;9.40;5.03;;;26.20;71.40;;;;;;5063653;28;20339;-53
2022/01/10 10:30:31;;;;;;;13.73;5.40;;;26.20;71.10;;;;;;5062213;28;20066;-52
2022/01/10 10:33:17;;;;;;;17.52;4.90;;;26.20;70.70;;;;;;5063788;28;20029;-48
2022/01/10 10:35:53;;;;;;;13.30;4.97;;;26.20;70.40;;;;;;5063422;28;20019;-54
2022/01/10 10:38:20;;;;;;;16.00;5.13;;;26.20;70.70;;;;;;5063566;28;20092;-56
2022/01/10 10:40:46;;;;;;;18.92;5.03;;;26.10;70.30;;;;;;5063534;28;20028;-52
2022/01/10 10:43:13;;;;;;;139.90;10.00;;;26.10;70.50;;;;;;5063990;28;20044;-50
2022/01/10 10:45:39;;;;;;;79.53;7.28;;;26.10;70.20;;;;;;5063457;28;20025;-50
2022/01/10 10:48:08;;;;;;;55.53;6.65;;;26.10;70.30;;;;;;5063876;28;20093;-56
2022/01/10 10:50:42;;;;;;;75.65;8.88;;;26.10;70.40;;;;;;5063508;28;20037;-51
2022/01/10 10:53:13;;;;;;;94.90;10.05;;;26.20;70.50;;;;;;5063812;28;20033;-52
2022/01/10 10:55:40;;;;;;;42.88;7.05;;;26.20;70.50;;;;;;5063197;28;20044;-52
2022/01/10 10:58:08;;;;;;;43.95;6.13;;;26.20;70.20;;;;;;5063706;28;20063;-56
2022/01/10 11:00:35;;;;;;;39.70;6.03;;;26.10;70.20;;;;;;5063256;28;20058;-47
2022/01/10 11:03:02;;;;;;;32.33;6.25;;;26.20;70.10;;;;;;5063602;28;20032;-54
2022/01/10 11:05:30;;;;;;;33.92;5.88;;;26.20;70.10;;;;;;5065898;28;20070;-53
2022/01/10 11:07:57;;;;;;;49.78;6.28;;;26.20;70.00;;;;;;5067548;28;20035;-52
2022/01/10 11:10:24;;;;;;;32.83;6.15;;;26.10;70.00;;;;;;5066959;28;20025;-50
2022/01/10 11:12:57;;;;;;;30.05;6.10;;;26.10;70.10;;;;;;5067426;28;20021;-52
2022/01/10 11:15:25;;;;;;;29.73;5.53;;;26.10;70.30;;;;;;5066954;28;20025;-55
2022/01/10 11:17:54;;;;;;;32.72;6.18;;;26.10;70.30;;;;;;5067006;28;20071;-52
2022/01/10 11:20:23;;;;;;;26.85;5.40;;;26.10;70.50;;;;;;5067203;28;20321;-52
2022/01/10 11:22:57;;;;;;;23.25;5.35;;;26.00;70.50;;;;;;5067193;28;20029;-58
2022/01/10 11:25:26;;;;;;;21.35;5.47;;;26.00;70.60;;;;;;5066779;28;20025;-53
2022/01/10 11:27:58;;;;;;;25.33;5.10;;;26.00;70.60;;;;;;5067030;28;20025;-53
2022/01/10 11:30:45;;;;;;;24.95;4.90;;;26.10;70.70;;;;;;5066553;28;20021;-55
2022/01/10 11:33:17;;;;;;;16.63;5.00;;;26.00;70.50;;;;;;5066693;28;20044;-51
2022/01/10 11:35:48;;;;;;;21.30;5.10;;;26.00;70.60;;;;;;5066468;28;20017;-52
2022/01/10 11:38:26;;;;;;;18.27;5.55;;;26.00;70.70;;;;;;5066938;28;20040;-56
2022/01/10 11:40:56;;;;;;;15.95;5.20;;;26.00;70.40;;;;;;5066136;28;20020;-52
2022/01/10 11:43:37;;;;;;;15.80;4.45;;;26.00;70.50;;;;;;5066692;28;20017;-50
2022/01/10 11:46:22;;;;;;;14.48;4.65;;;26.00;70.60;;;;;;5066236;28;20055;-50
2022/01/10 11:48:55;;;;;;;12.43;4.80;;;26.00;70.70;;;;;;5066272;28;20048;-53
2022/01/10 11:51:31;;;;;;;13.38;4.75;;;26.00;70.90;;;;;;5066033;28;20025;-53
2022/01/10 11:54:09;;;;;;;12.35;5.72;;;26.00;71.00;;;;;;5063396;28;20021;-51
2022/01/10 11:56:38;;;;;;;14.43;5.00;;;26.00;71.60;;;;;;5066080;28;20217;-56
2022/01/10 11:59:14;;;;;;;16.55;5.00;;;26.00;71.80;;;;;;5066163;28;20055;-54
2022/01/10 12:01:51;;;;;;;20.90;4.90;;;26.00;71.90;;;;;;5066114;28;20025;-54
2022/01/10 12:04:19;;;;;;;14.10;5.13;;;26.00;72.10;;;;;;5066292;28;20033;-53
2022/01/10 12:06:46;;;;;;;13.90;4.82;;;26.00;72.30;;;;;;5048243;28;20212;-53
2022/01/10 12:09:13;;;;;;;10.55;4.82;;;25.90;73.00;;;;;;5065964;28;20202;-51
2022/01/10 12:11:40;;;;;;;17.55;5.15;;;26.00;72.70;;;;;;5065958;28;20273;-56
2022/01/10 12:14:09;;;;;;;19.55;6.00;;;26.00;72.80;;;;;;5065813;28;20328;-60
2022/01/10 12:16:36;;;;;;;14.10;5.15;;;26.00;73.00;;;;;;5065380;28;20067;-48
2022/01/10 12:19:04;;;;;;;20.90;5.68;;;26.00;72.90;;;;;;5065908;28;20029;-58
2022/01/10 12:21:32;;;;;;;19.42;5.15;;;26.00;73.00;;;;;;5065385;28;20248;-52
2022/01/10 12:23:59;;;;;;;13.25;5.43;;;26.00;73.10;;;;;;5065904;28;20309;-51
2022/01/10 12:26:27;;;;;;;22.77;5.40;;;26.00;73.10;;;;;;5065813;28;20321;-55
2022/01/10 12:28:56;;;;;;;15.73;5.35;;;26.00;73.30;;;;;;5065786;28;20035;-53
2022/01/10 12:31:24;;;;;;;16.13;5.47;;;26.00;73.30;;;;;;5065409;28;20071;-53
2022/01/10 12:33:52;;;;;;;11.25;5.38;;;26.00;73.50;;;;;;5065344;28;20037;-54
2022/01/10 12:36:20;;;;;;;20.58;5.40;;;26.00;73.30;;;;;;5065513;28;20028;-53
2022/01/10 12:38:58;;;;;;;14.35;4.95;;;26.10;73.50;;;;;;5065378;28;20051;-53
2022/01/10 12:41:26;;;;;;;17.80;5.38;;;26.10;73.70;;;;;;5065444;28;20096;-53
2022/01/10 12:43:54;;;;;;;13.18;4.82;;;26.10;73.70;;;;;;5065373;28;20020;-53
2022/01/10 12:46:22;;;;;;;12.32;4.75;;;26.10;73.70;;;;;;5065186;28;20213;-51
2022/01/10 12:48:50;;;;;;;12.45;5.43;;;26.10;73.80;;;;;;5065302;28;20040;-50
2022/01/10 12:51:21;;;;;;;12.80;5.20;;;26.10;73.70;;;;;;5065151;28;20033;-54
2022/01/10 12:53:51;;;;;;;19.52;5.60;;;26.10;73.60;;;;;;5065119;28;20040;-56
2022/01/10 12:56:23;;;;;;;13.52;5.72;;;26.10;73.60;;;;;;5065132;28;20020;-50
2022/01/10 12:58:51;;;;;;;16.67;5.60;;;26.20;73.70;;;;;;5065004;28;20081;-53